createdAt,value
2022-09-28T00:02:13.598Z,18.47
2022-09-28T00:07:16.862Z,19.17
2022-09-28T00:12:20.096Z,17.97
2022-09-28T00:17:24.540Z,16.83
2022-09-28T00:22:28.804Z,17.20
2022-09-28T00:27:32.336Z,16.60
2022-09-28T00:32:35.933Z,15.80
2022-09-28T00:37:39.975Z,15.27
2022-09-28T00:42:43.525Z,14.67
2022-09-28T00:47:55.777Z,13.80
2022-09-28T00:53:13.531Z,14.70
2022-09-28T00:58:23.543Z,13.10
2022-09-28T01:03:28.180Z,13.20
2022-09-28T01:08:33.254Z,12.83
2022-09-28T01:13:37.933Z,13.07
2022-09-28T01:19:26.065Z,12.33
2022-09-28T01:24:48.608Z,13.93
2022-09-28T01:30:05.264Z,15.33
2022-09-28T01:35:23.128Z,15.53
2022-09-28T01:40:28.204Z,14.53
2022-09-28T01:45:37.442Z,13.60
2022-09-28T01:50:43.077Z,13.60
2022-09-28T01:55:50.985Z,13.27
2022-09-28T02:01:00.839Z,13.53
2022-09-28T02:06:12.205Z,13.73
2022-09-28T02:11:17.854Z,13.87
2022-09-28T02:16:36.753Z,13.33
2022-09-28T02:21:46.335Z,15.37
2022-09-28T02:26:52.166Z,14.63
2022-09-28T02:31:55.264Z,15.53
2022-09-28T02:36:58.673Z,16.53
2022-09-28T02:42:12.828Z,14.60
2022-09-28T02:47:37.027Z,14.17
2022-09-28T02:52:42.943Z,14.87
2022-09-28T02:58:04.732Z,14.00
2022-09-28T03:03:33.445Z,14.30
2022-09-28T03:08:47.055Z,12.90
2022-09-28T03:13:51.041Z,13.73
2022-09-28T03:18:54.453Z,14.93
2022-09-28T03:23:57.664Z,13.93
2022-09-28T03:29:01.042Z,13.40
2022-09-28T03:34:04.344Z,12.87
2022-09-28T03:39:07.603Z,12.80
2022-09-28T03:44:11.027Z,12.33
2022-09-28T03:49:14.298Z,12.63
2022-09-28T03:54:17.451Z,12.63
2022-09-28T03:59:20.695Z,11.47
2022-09-28T04:04:49.551Z,11.70
2022-09-28T04:09:52.693Z,11.53
2022-09-28T04:14:55.875Z,11.57
2022-09-28T04:19:59.060Z,11.57
2022-09-28T04:25:06.154Z,11.87
2022-09-28T04:30:10.147Z,10.93
2022-09-28T04:35:13.829Z,11.47
2022-09-28T04:40:17.053Z,10.70
2022-09-28T04:45:21.099Z,10.63
2022-09-28T04:50:24.462Z,10.30
2022-09-28T04:55:32.725Z,10.50
2022-09-28T05:00:36.545Z,10.20
2022-09-28T05:05:48.487Z,10.30
2022-09-28T05:11:01.452Z,10.03
2022-09-28T05:16:05.723Z,10.10
2022-09-28T05:21:13.733Z,9.73
2022-09-28T05:26:17.141Z,10.60
2022-09-28T05:31:20.680Z,9.60
2022-09-28T05:36:27.413Z,9.47
2022-09-28T05:41:30.508Z,10.20
2022-09-28T05:46:33.548Z,11.23
2022-09-28T05:51:37.052Z,11.33
2022-09-28T05:56:39.989Z,10.43
2022-09-28T06:01:43.022Z,9.83
2022-09-28T06:06:46.302Z,9.50
2022-09-28T06:11:49.372Z,9.73
2022-09-28T06:16:52.795Z,8.23
2022-09-28T06:21:58.407Z,9.20
2022-09-28T06:27:02.471Z,10.43
2022-09-28T06:32:05.411Z,11.80
2022-09-28T06:37:08.413Z,10.70
2022-09-28T06:42:11.901Z,10.23
2022-09-28T06:47:15.597Z,11.23
2022-09-28T06:52:18.733Z,12.10
2022-09-28T06:57:22.112Z,12.87
2022-09-28T07:02:25.241Z,10.07
2022-09-28T07:07:28.623Z,9.60
2022-09-28T07:12:33.594Z,10.47
2022-09-28T07:17:49.382Z,9.33
2022-09-28T07:22:56.471Z,8.50
2022-09-28T07:28:01.700Z,10.10
2022-09-28T07:33:08.282Z,10.20
2022-09-28T07:38:11.982Z,10.30
2022-09-28T07:43:15.372Z,9.23
2022-09-28T07:48:19.497Z,9.83
2022-09-28T07:53:25.317Z,9.30
2022-09-28T07:58:28.652Z,9.40
2022-09-28T08:03:31.611Z,9.83
2022-09-28T08:08:36.287Z,8.93
2022-09-28T08:13:39.774Z,9.17
2022-09-28T08:18:43.297Z,9.57
2022-09-28T08:23:46.498Z,9.07
2022-09-28T08:28:49.790Z,9.60
2022-09-28T08:33:54.364Z,10.30
2022-09-28T08:38:57.787Z,8.20
2022-09-28T08:44:06.841Z,7.50
2022-09-28T08:49:25.533Z,7.67
2022-09-28T08:54:43.252Z,8.27
2022-09-28T08:59:50.830Z,7.73
2022-09-28T09:04:55.071Z,8.00
2022-09-28T09:10:37.212Z,9.33
2022-09-28T09:15:48.804Z,8.23
2022-09-28T09:20:55.319Z,7.53
2022-09-28T09:26:11.023Z,7.70
2022-09-28T09:31:29.094Z,6.33
2022-09-28T09:36:48.623Z,6.50
2022-09-28T09:42:10.331Z,5.70
2022-09-28T09:47:24.122Z,5.67
2022-09-28T09:52:47.074Z,5.93
2022-09-28T09:57:56.028Z,4.90
2022-09-28T10:03:01.115Z,5.83
2022-09-28T10:08:15.279Z,5.77
2022-09-28T10:13:18.484Z,5.63
2022-09-28T10:18:22.252Z,6.40
2022-09-28T10:23:31.528Z,5.83
2022-09-28T10:28:48.534Z,5.77
2022-09-28T10:33:54.185Z,7.53
2022-09-28T10:38:59.002Z,8.57
2022-09-28T10:44:07.325Z,8.30
2022-09-28T10:49:19.541Z,9.03
2022-09-28T10:54:31.243Z,8.93
2022-09-28T10:59:42.654Z,10.90
2022-09-28T11:04:58.638Z,9.97
2022-09-28T11:10:02.634Z,8.60
2022-09-28T11:15:08.481Z,10.37
2022-09-28T11:20:28.646Z,7.10
2022-09-28T11:25:32.113Z,6.67
2022-09-28T11:30:39.563Z,8.47
2022-09-28T11:36:01.430Z,7.97
2022-09-28T11:41:33.642Z,7.90
2022-09-28T11:46:55.241Z,8.70
2022-09-28T11:52:02.988Z,8.87
2022-09-28T11:57:13.452Z,8.90
2022-09-28T12:02:25.790Z,6.87
2022-09-28T12:07:41.392Z,5.90
2022-09-28T12:12:54.152Z,5.00
2022-09-28T12:18:06.197Z,5.27
2022-09-28T12:23:19.622Z,5.83
2022-09-28T12:28:49.519Z,6.60
2022-09-28T12:33:53.335Z,6.33
2022-09-28T12:39:40.663Z,7.10
2022-09-28T12:45:21.203Z,7.87
2022-09-28T12:50:39.542Z,8.43
2022-09-28T12:56:04.432Z,8.20
2022-09-28T13:01:33.176Z,5.93
2022-09-28T13:06:48.385Z,7.77
2022-09-28T13:12:13.702Z,9.97
2022-09-28T13:17:56.651Z,10.13
2022-09-28T13:23:12.392Z,9.73
2022-09-28T13:28:17.322Z,11.17
2022-09-28T13:33:45.843Z,11.50
2022-09-28T13:38:52.566Z,13.33
2022-09-28T13:43:55.744Z,12.90
2022-09-28T13:49:20.317Z,11.30
2022-09-28T13:54:44.292Z,11.13
2022-09-28T14:00:03.993Z,10.10
2022-09-28T14:05:46.503Z,10.57
2022-09-28T14:10:56.006Z,10.50
2022-09-28T14:16:21.697Z,10.73
2022-09-28T14:21:49.311Z,9.13
2022-09-28T14:26:55.352Z,8.97
2022-09-28T14:32:05.191Z,8.63
2022-09-28T14:37:44.901Z,8.70
2022-09-28T14:43:28.385Z,9.23
2022-09-28T14:48:58.062Z,9.10
2022-09-28T14:54:19.138Z,8.20
2022-09-28T14:59:25.867Z,7.93
2022-09-28T15:04:31.423Z,9.27
2022-09-28T15:09:39.056Z,8.60
2022-09-28T15:14:56.660Z,8.50
2022-09-28T15:20:30.604Z,9.03
2022-09-28T15:25:35.779Z,6.50
2022-09-28T15:30:39.020Z,5.63
2022-09-28T15:35:42.582Z,9.77
2022-09-28T15:40:46.670Z,6.67
2022-09-28T15:46:03.125Z,7.87
2022-09-28T15:51:12.053Z,9.40
2022-09-28T15:56:17.091Z,8.87
2022-09-28T16:01:31.492Z,7.60
2022-09-28T16:06:34.792Z,9.30
2022-09-28T16:11:40.382Z,7.00
2022-09-28T16:16:50.823Z,5.47
2022-09-28T16:21:56.674Z,5.47
2022-09-28T16:27:09.791Z,5.17
2022-09-28T16:32:35.700Z,3.40
2022-09-28T16:37:44.737Z,3.90
2022-09-28T16:42:54.893Z,3.77
2022-09-28T16:47:59.027Z,4.00
2022-09-28T16:53:36.191Z,2.10
2022-09-28T16:58:41.128Z,1.77
2022-09-28T17:03:50.222Z,1.97
2022-09-28T17:08:57.552Z,2.43
2022-09-28T17:14:06.472Z,2.57
2022-09-28T17:19:29.932Z,3.17
2022-09-28T17:24:34.320Z,3.60
2022-09-28T17:29:37.759Z,6.00
2022-09-28T17:34:41.242Z,11.97
2022-09-28T17:39:44.651Z,16.97
2022-09-28T17:44:49.852Z,10.70
2022-09-28T17:49:54.112Z,10.40
2022-09-28T17:54:57.961Z,9.07
2022-09-28T18:00:01.479Z,10.97
2022-09-28T18:05:05.562Z,10.70
2022-09-28T18:10:15.740Z,10.47
2022-09-28T18:15:20.084Z,19.47
2022-09-28T18:20:23.651Z,13.60
2022-09-28T18:25:27.339Z,13.37
2022-09-28T18:30:31.201Z,12.50
2022-09-28T18:35:40.428Z,11.83
2022-09-28T18:40:44.366Z,10.10
2022-09-28T18:45:48.567Z,9.13
2022-09-28T18:50:52.462Z,8.30
2022-09-28T18:55:58.389Z,8.80
2022-09-28T19:06:41.232Z,9.37
2022-09-28T19:11:44.774Z,8.83
2022-09-28T19:16:48.579Z,14.80
2022-09-28T19:21:52.345Z,20.53
2022-09-28T19:26:57.261Z,21.87
2022-09-28T19:32:01.441Z,36.37
2022-09-28T19:37:05.183Z,27.13
2022-09-28T19:42:09.006Z,19.73
2022-09-28T19:47:13.757Z,16.33
2022-09-28T19:52:17.545Z,15.60
2022-09-28T19:57:22.551Z,17.53
2022-09-28T20:02:27.141Z,20.33
2022-09-28T20:07:33.701Z,19.17
2022-09-28T20:12:38.022Z,18.23
2022-09-28T20:17:41.880Z,15.80
2022-09-28T20:22:45.492Z,17.00
2022-09-28T20:27:49.551Z,16.80
2022-09-28T20:32:55.114Z,16.50
2022-09-28T20:37:59.621Z,15.53
2022-09-28T20:43:03.421Z,13.83
2022-09-28T20:48:09.208Z,14.07
2022-09-28T20:53:12.682Z,13.80
2022-09-28T20:58:15.911Z,17.00
2022-09-28T21:03:20.024Z,14.13
2022-09-28T21:08:25.578Z,13.67
2022-09-28T21:13:28.631Z,15.73
2022-09-28T21:18:31.804Z,13.43
2022-09-28T21:23:36.520Z,11.33
2022-09-28T21:28:40.017Z,9.73
2022-09-28T21:33:43.202Z,10.57
2022-09-28T21:38:46.386Z,9.83
2022-09-28T21:43:49.621Z,9.67
2022-09-28T21:48:57.093Z,9.17
2022-09-28T21:54:00.484Z,9.17
2022-09-28T21:59:03.673Z,14.57
2022-09-28T22:04:07.481Z,10.13
2022-09-28T22:09:11.187Z,11.57
2022-09-28T22:14:14.478Z,12.10
2022-09-28T22:19:17.722Z,9.90
2022-09-28T22:24:20.963Z,7.47
2022-09-28T22:29:24.881Z,7.90
2022-09-28T22:34:32.545Z,7.97
2022-09-28T22:39:37.856Z,6.90
2022-09-28T22:44:41.321Z,7.87
2022-09-28T22:49:44.558Z,7.13
2022-09-28T22:54:48.578Z,8.00
2022-09-28T22:59:51.510Z,7.77
2022-09-28T23:04:54.771Z,7.70
2022-09-28T23:10:00.404Z,8.40
2022-09-28T23:15:03.813Z,9.43
2022-09-28T23:20:07.685Z,10.17
2022-09-28T23:25:11.041Z,9.97
2022-09-28T23:30:15.790Z,9.37
2022-09-28T23:35:19.266Z,9.47
2022-09-28T23:40:22.499Z,9.63
2022-09-28T23:45:25.807Z,13.73
2022-09-28T23:50:29.240Z,15.80
2022-09-28T23:55:32.542Z,11.57
